Time;durP1;ratioP1;P1;durP2;ratioP2;P2;SDS_P1;SDS_P2;PMS_P1;PMS_P2;Temp;Humidity;BMP_temperature;BMP_pressure;BME280_temperature;BME280_humidity;BME280_pressure;Samples;Min_cycle;Max_cycle;Signal;HPM_P1;HPM_P2
2022/04/30 00:02:14;;;;;;;18.27;4.07;;;;;;;;;;10495074;28;20115;-44
2022/04/30 00:07:20;;;;;;;6.90;3.88;;;;;;;;;;10492986;28;20035;-43
2022/04/30 00:12:23;;;;;;;10.57;3.70;;;;;;;;;;10493240;28;20111;-43
2022/04/30 00:17:24;;;;;;;16.23;4.18;;;;;;;;;;10492380;28;20475;-54
2022/04/30 00:22:24;;;;;;;14.10;4.40;;;;;;;;;;10492243;28;20016;-50
2022/04/30 00:27:25;;;;;;;8.35;4.13;;;;;;;;;;10491848;28;20035;-43
2022/04/30 00:32:26;;;;;;;13.18;3.97;;;;;;;;;;10519390;28;20093;-43
2022/04/30 00:37:26;;;;;;;11.98;4.07;;;;;;;;;;10533149;28;20456;-43
2022/04/30 00:42:27;;;;;;;14.85;4.18;;;;;;;;;;10533141;28;20040;-60
2022/04/30 00:47:28;;;;;;;11.60;3.97;;;;;;;;;;10533118;28;20047;-43
2022/04/30 00:52:28;;;;;;;8.40;3.88;;;;;;;;;;10531300;28;20038;-52
2022/04/30 00:57:32;;;;;;;6.35;3.25;;;;;;;;;;10532767;28;20035;-59
2022/04/30 01:02:33;;;;;;;8.63;4.00;;;;;;;;;;10505846;28;20090;-60
2022/04/30 01:07:36;;;;;;;8.70;4.07;;;;;;;;;;10505308;28;20455;-44
2022/04/30 01:12:37;;;;;;;7.90;3.55;;;;;;;;;;10529415;28;20131;-44
2022/04/30 01:17:39;;;;;;;8.00;3.50;;;;;;;;;;10519577;28;20387;-60
2022/04/30 01:23:04;;;;;;;8.15;3.75;;;;;;;;;;10489470;28;20372;-58
2022/04/30 01:28:06;;;;;;;8.43;3.42;;;;;;;;;;10491782;28;20032;-43
2022/04/30 01:38:27;;;;;;;12.18;4.20;;;;;;;;;;10491576;28;20466;-43
2022/04/30 01:43:30;;;;;;;9.50;3.53;;;;;;;;;;10489793;28;20029;-43
2022/04/30 01:48:32;;;;;;;7.35;3.35;;;;;;;;;;10497487;28;20395;-60
2022/04/30 01:53:34;;;;;;;7.38;3.33;;;;;;;;;;10497726;28;20036;-47
2022/04/30 01:58:35;;;;;;;11.07;3.63;;;;;;;;;;10497633;28;20463;-56
2022/04/30 02:03:35;;;;;;;7.55;3.35;;;;;;;;;;10538950;28;20066;-60
2022/04/30 02:08:36;;;;;;;6.43;3.35;;;;;;;;;;10539394;28;20039;-60
2022/04/30 02:13:39;;;;;;;5.18;3.25;;;;;;;;;;10535903;28;20044;-43
2022/04/30 02:18:40;;;;;;;9.10;3.50;;;;;;;;;;10536967;28;20093;-44
2022/04/30 02:23:40;;;;;;;6.05;3.30;;;;;;;;;;10537445;28;20476;-60
2022/04/30 02:28:42;;;;;;;9.30;3.55;;;;;;;;;;10520942;28;20098;-44
2022/04/30 02:33:43;;;;;;;8.50;3.88;;;;;;;;;;10496209;28;20059;-48
2022/04/30 02:38:43;;;;;;;6.35;3.50;;;;;;;;;;10508797;28;20035;-43
2022/04/30 02:43:45;;;;;;;4.72;3.08;;;;;;;;;;10537756;28;20020;-53
2022/04/30 02:48:47;;;;;;;3.95;2.92;;;;;;;;;;10521210;28;20070;-50
2022/04/30 02:53:47;;;;;;;9.55;3.35;;;;;;;;;;10536722;28;20039;-52
2022/04/30 03:04:07;;;;;;;4.03;2.88;;;;;;;;;;10495196;28;20029;-57
2022/04/30 03:09:08;;;;;;;4.55;3.00;;;;;;;;;;10495283;28;20029;-44
2022/04/30 03:14:08;;;;;;;4.25;3.10;;;;;;;;;;10494367;28;20041;-60
2022/04/30 03:24:30;;;;;;;3.75;3.20;;;;;;;;;;10500902;28;20505;-59
2022/04/30 03:29:31;;;;;;;3.72;3.28;;;;;;;;;;10494504;28;20089;-44
2022/04/30 03:34:32;;;;;;;4.85;3.10;;;;;;;;;;10516456;28;20039;-61
2022/04/30 03:39:33;;;;;;;3.72;2.83;;;;;;;;;;10535736;28;20027;-47
2022/04/30 03:44:34;;;;;;;4.80;3.00;;;;;;;;;;10517365;28;20055;-44
2022/04/30 03:49:34;;;;;;;4.07;3.05;;;;;;;;;;10493373;28;20383;-60
2022/04/30 03:54:35;;;;;;;4.38;3.00;;;;;;;;;;10494034;28;20052;-58
2022/04/30 03:59:35;;;;;;;3.38;2.78;;;;;;;;;;10492790;28;20557;-56
2022/04/30 04:04:36;;;;;;;3.20;2.90;;;;;;;;;;10498489;28;20363;-61
2022/04/30 04:09:37;;;;;;;7.00;2.90;;;;;;;;;;10533651;28;20028;-60
2022/04/30 04:19:56;;;;;;;3.65;2.75;;;;;;;;;;10534603;28;20032;-43
2022/04/30 04:30:16;;;;;;;5.35;2.67;;;;;;;;;;10495746;28;20024;-43
2022/04/30 04:35:17;;;;;;;7.15;3.13;;;;;;;;;;10509274;28;20023;-43
2022/04/30 04:40:18;;;;;;;5.25;2.88;;;;;;;;;;10521161;28;20085;-55
2022/04/30 04:45:22;;;;;;;4.90;2.92;;;;;;;;;;10525764;28;20024;-44
2022/04/30 04:50:23;;;;;;;3.85;2.80;;;;;;;;;;10523074;28;20027;-43
2022/04/30 04:55:24;;;;;;;7.32;3.05;;;;;;;;;;10523215;28;20145;-43
2022/04/30 05:00:25;;;;;;;4.95;2.80;;;;;;;;;;10505743;28;20090;-44
2022/04/30 05:05:25;;;;;;;3.65;3.03;;;;;;;;;;10497876;28;20033;-43
2022/04/30 05:10:26;;;;;;;3.35;2.80;;;;;;;;;;10511800;28;20031;-43
2022/04/30 05:15:26;;;;;;;4.82;2.72;;;;;;;;;;10530798;28;20055;-43
2022/04/30 05:20:27;;;;;;;3.92;2.95;;;;;;;;;;10509479;28;20479;-44
2022/04/30 05:25:28;;;;;;;3.50;2.63;;;;;;;;;;10499140;28;20035;-43
2022/04/30 05:30:28;;;;;;;5.07;2.58;;;;;;;;;;10499857;28;20032;-45
2022/04/30 05:35:29;;;;;;;3.17;2.60;;;;;;;;;;10498514;28;20044;-55
2022/04/30 05:40:29;;;;;;;2.90;2.38;;;;;;;;;;10516607;28;20037;-60
2022/04/30 05:45:30;;;;;;;4.03;2.45;;;;;;;;;;10519111;28;20032;-43
2022/04/30 05:50:31;;;;;;;4.35;2.70;;;;;;;;;;10512055;28;20114;-43
2022/04/30 05:55:32;;;;;;;6.28;2.90;;;;;;;;;;10538283;28;20047;-43
2022/04/30 06:00:32;;;;;;;19.30;3.05;;;;;;;;;;10530210;28;20040;-43
2022/04/30 06:05:33;;;;;;;4.93;2.75;;;;;;;;;;10497645;28;20487;-43
2022/04/30 06:10:33;;;;;;;4.32;2.55;;;;;;;;;;10510122;28;20391;-43
2022/04/30 06:15:34;;;;;;;6.25;3.33;;;;;;;;;;10525255;28;20126;-43
2022/04/30 06:20:35;;;;;;;3.78;2.42;;;;;;;;;;10497223;28;20087;-43
2022/04/30 06:25:36;;;;;;;8.07;3.25;;;;;;;;;;10516294;28;20028;-44
2022/04/30 06:30:36;;;;;;;12.55;3.15;;;;;;;;;;10537385;28;20035;-47
2022/04/30 06:35:37;;;;;;;9.65;3.05;;;;;;;;;;10532514;28;20035;-44
2022/04/30 06:40:38;;;;;;;3.60;2.70;;;;;;;;;;10522081;28;20086;-47
2022/04/30 06:45:39;;;;;;;10.70;3.10;;;;;;;;;;10506684;28;20078;-58
2022/04/30 06:50:39;;;;;;;5.93;3.00;;;;;;;;;;10506726;28;20039;-44
2022/04/30 07:06:03;;;;;;;27.38;4.25;;;;;;;;;;10523030;28;20021;-44
2022/04/30 07:11:04;;;;;;;9.18;3.67;;;;;;;;;;10495877;28;20044;-44
2022/04/30 07:16:04;;;;;;;16.05;4.47;;;;;;;;;;10494398;28;20109;-44
2022/04/30 07:21:05;;;;;;;23.10;4.18;;;;;;;;;;10495716;28;20032;-44
2022/04/30 07:26:06;;;;;;;15.55;4.43;;;;;;;;;;10494407;28;20071;-44
2022/04/30 07:31:08;;;;;;;30.67;4.40;;;;;;;;;;10510677;28;20471;-44
2022/04/30 07:36:09;;;;;;;36.20;4.85;;;;;;;;;;10535882;28;20040;-44
2022/04/30 07:41:10;;;;;;;11.63;3.80;;;;;;;;;;10534012;28;20421;-44
2022/04/30 07:46:10;;;;;;;15.75;4.05;;;;;;;;;;10534620;28;20089;-44
2022/04/30 07:51:16;;;;;;;19.20;3.63;;;;;;;;;;10533683;28;20016;-44
2022/04/30 07:56:17;;;;;;;12.30;3.53;;;;;;;;;;10535016;28;20031;-44
2022/04/30 08:01:17;;;;;;;10.43;3.60;;;;;;;;;;10534010;28;20035;-44
2022/04/30 08:06:18;;;;;;;11.60;3.55;;;;;;;;;;10511900;28;20023;-44
2022/04/30 08:11:18;;;;;;;16.73;3.40;;;;;;;;;;10531110;28;20424;-45
2022/04/30 08:16:19;;;;;;;14.93;3.90;;;;;;;;;;10532262;28;20036;-49
2022/04/30 08:21:20;;;;;;;13.30;3.22;;;;;;;;;;10514202;28;20056;-44
2022/04/30 08:26:20;;;;;;;9.77;3.00;;;;;;;;;;10491910;28;20035;-44
2022/04/30 08:31:21;;;;;;;12.48;3.72;;;;;;;;;;10492890;28;20492;-44
2022/04/30 08:36:21;;;;;;;5.40;3.17;;;;;;;;;;10491588;28;20361;-44
2022/04/30 08:41:22;;;;;;;13.07;3.38;;;;;;;;;;10529664;28;20159;-48
2022/04/30 08:46:23;;;;;;;10.50;2.95;;;;;;;;;;10493522;28;20036;-44
2022/04/30 08:51:23;;;;;;;10.57;3.50;;;;;;;;;;10491473;28;20021;-44
2022/04/30 08:56:24;;;;;;;12.30;3.15;;;;;;;;;;10491984;28;20480;-44
2022/04/30 09:01:25;;;;;;;4.35;2.58;;;;;;;;;;10490892;28;20077;-44
2022/04/30 09:06:26;;;;;;;14.60;2.95;;;;;;;;;;10486393;22;20049;-48
2022/04/30 09:11:27;;;;;;;7.15;3.33;;;;;;;;;;10482129;28;20040;-47
2022/04/30 09:16:28;;;;;;;7.05;2.95;;;;;;;;;;10428603;28;20037;-47
2022/04/30 09:21:29;;;;;;;7.43;2.95;;;;;;;;;;10408135;28;20050;-47
2022/04/30 09:26:43;;;;;;;7.80;3.15;;;;;;;;;;10407668;28;20114;-48
2022/04/30 09:31:52;;;;;;;10.38;2.70;;;;;;;;;;10408339;28;20265;-47
2022/04/30 09:42:15;;;;;;;5.90;2.97;;;;;;;;;;10393462;28;20120;-48
2022/04/30 09:47:16;;;;;;;6.55;3.10;;;;;;;;;;10390990;28;20488;-46
2022/04/30 09:57:37;;;;;;;6.07;2.83;;;;;;;;;;10407236;28;20136;-48
2022/04/30 10:02:38;;;;;;;7.43;2.95;;;;;;;;;;10389853;28;20060;-49
2022/04/30 10:07:40;;;;;;;7.30;3.17;;;;;;;;;;10392356;28;20462;-48
2022/04/30 10:13:09;;;;;;;7.55;3.22;;;;;;;;;;10396901;28;20412;-49
2022/04/30 10:18:10;;;;;;;5.25;2.90;;;;;;;;;;10376468;28;20029;-47
2022/04/30 10:23:16;;;;;;;8.15;3.45;;;;;;;;;;10378671;28;20547;-48
2022/04/30 10:28:18;;;;;;;3.78;3.03;;;;;;;;;;10406540;28;20088;-48
2022/04/30 10:33:20;;;;;;;5.25;3.30;;;;;;;;;;10414859;28;20476;-47
2022/04/30 10:38:21;;;;;;;9.30;3.42;;;;;;;;;;10453725;28;20176;-48
2022/04/30 10:43:42;;;;;;;5.10;2.97;;;;;;;;;;10412749;28;20041;-48
2022/04/30 10:48:43;;;;;;;9.50;3.38;;;;;;;;;;10413664;28;20037;-48
2022/04/30 10:53:47;;;;;;;7.50;3.25;;;;;;;;;;10411187;28;20029;-47
2022/04/30 10:58:51;;;;;;;5.88;3.15;;;;;;;;;;10419414;28;20140;-48
2022/04/30 11:03:52;;;;;;;5.90;2.60;;;;;;;;;;10412469;28;20030;-47
2022/04/30 11:09:11;;;;;;;7.10;2.97;;;;;;;;;;10411991;28;20149;-47
2022/04/30 11:14:12;;;;;;;4.03;3.03;;;;;;;;;;10406293;28;20432;-51
2022/04/30 11:19:16;;;;;;;8.18;3.33;;;;;;;;;;10409607;28;20037;-49
2022/04/30 11:24:30;;;;;;;9.50;3.17;;;;;;;;;;10408380;28;20044;-52
2022/04/30 11:29:32;;;;;;;6.78;3.45;;;;;;;;;;10412603;28;20024;-49
2022/04/30 11:34:33;;;;;;;7.30;3.35;;;;;;;;;;10428853;28;20154;-48
2022/04/30 11:39:34;;;;;;;5.43;2.60;;;;;;;;;;10409800;28;20169;-50
2022/04/30 11:44:35;;;;;;;4.15;2.88;;;;;;;;;;10410130;28;20161;-49
2022/04/30 11:49:36;;;;;;;8.10;3.42;;;;;;;;;;10410570;28;20185;-55
2022/04/30 11:54:38;;;;;;;6.18;3.17;;;;;;;;;;10405626;28;20033;-48
2022/04/30 11:59:40;;;;;;;8.57;3.38;;;;;;;;;;10392716;28;20116;-49
2022/04/30 12:04:41;;;;;;;6.95;2.55;;;;;;;;;;10380118;28;20057;-49
2022/04/30 12:09:49;;;;;;;7.78;3.40;;;;;;;;;;10409821;28;20036;-52
2022/04/30 12:14:54;;;;;;;5.97;2.92;;;;;;;;;;10410051;28;20040;-50
2022/04/30 12:25:28;;;;;;;9.73;3.10;;;;;;;;;;10410124;28;20025;-50
2022/04/30 12:30:32;;;;;;;10.13;3.30;;;;;;;;;;10390819;28;20461;-49
2022/04/30 12:35:40;;;;;;;7.47;3.42;;;;;;;;;;10409297;28;20087;-50
2022/04/30 12:40:44;;;;;;;9.90;3.25;;;;;;;;;;10409256;28;20024;-48
2022/04/30 12:45:48;;;;;;;8.27;3.33;;;;;;;;;;10404062;28;20041;-48
2022/04/30 12:50:48;;;;;;;12.43;2.92;;;;;;;;;;10381830;28;20389;-49
2022/04/30 12:55:52;;;;;;;14.43;3.03;;;;;;;;;;10408100;28;20036;-49
2022/04/30 13:00:54;;;;;;;18.45;3.90;;;;;;;;;;10408752;28;20034;-48
2022/04/30 13:05:55;;;;;;;22.65;4.90;;;;;;;;;;10408559;28;20113;-49
2022/04/30 13:16:14;;;;;;;6.32;3.33;;;;;;;;;;10407926;28;20037;-48
2022/04/30 13:21:15;;;;;;;8.98;2.88;;;;;;;;;;10408273;28;20034;-48
2022/04/30 13:26:16;;;;;;;9.20;3.28;;;;;;;;;;10407856;28;20037;-48
2022/04/30 13:31:17;;;;;;;8.57;2.92;;;;;;;;;;10405706;28;20021;-49
2022/04/30 13:36:17;;;;;;;5.82;3.13;;;;;;;;;;10408779;28;20396;-49
2022/04/30 13:41:18;;;;;;;4.30;2.67;;;;;;;;;;10410862;28;20250;-48
2022/04/30 13:46:19;;;;;;;9.38;3.10;;;;;;;;;;10413234;28;20033;-48
2022/04/30 13:51:20;;;;;;;7.60;3.10;;;;;;;;;;10415232;28;20026;-48
2022/04/30 13:56:21;;;;;;;8.80;3.60;;;;;;;;;;10415354;28;20465;-50
2022/04/30 14:01:21;;;;;;;3.05;2.42;;;;;;;;;;10395721;28;20481;-51
2022/04/30 14:06:22;;;;;;;14.07;3.60;;;;;;;;;;10417546;28;20489;-51
2022/04/30 14:11:22;;;;;;;10.82;3.20;;;;;;;;;;10408051;28;20435;-50
2022/04/30 14:16:23;;;;;;;13.57;3.50;;;;;;;;;;10415147;28;20060;-51
2022/04/30 14:21:24;;;;;;;10.77;2.63;;;;;;;;;;10414273;28;20496;-49
2022/04/30 14:26:26;;;;;;;7.50;2.67;;;;;;;;;;10414361;28;20030;-49
2022/04/30 14:31:26;;;;;;;10.35;2.72;;;;;;;;;;10413792;28;20033;-49
2022/04/30 14:36:27;;;;;;;5.78;2.95;;;;;;;;;;10414220;28;20029;-51
2022/04/30 14:41:28;;;;;;;5.57;3.08;;;;;;;;;;10414000;28;20389;-49
2022/04/30 14:46:28;;;;;;;5.45;3.03;;;;;;;;;;10413257;28;20037;-49
2022/04/30 14:51:29;;;;;;;4.80;2.92;;;;;;;;;;10413020;28;20053;-52
2022/04/30 14:56:30;;;;;;;7.80;3.00;;;;;;;;;;10412700;28;20037;-49
2022/04/30 15:01:30;;;;;;;3.75;2.67;;;;;;;;;;10413039;28;20051;-49
2022/04/30 15:06:31;;;;;;;6.88;2.72;;;;;;;;;;10412422;28;20052;-51
2022/04/30 15:11:31;;;;;;;5.72;3.05;;;;;;;;;;10413053;28;20083;-50
2022/04/30 15:16:33;;;;;;;4.43;2.88;;;;;;;;;;10412204;28;20033;-52
2022/04/30 15:21:35;;;;;;;6.47;2.97;;;;;;;;;;10412429;28;20249;-49
2022/04/30 15:26:35;;;;;;;4.35;2.83;;;;;;;;;;10411975;28;20025;-50
2022/04/30 15:31:36;;;;;;;2.95;2.47;;;;;;;;;;10393659;28;20432;-51
2022/04/30 15:36:39;;;;;;;3.08;2.38;;;;;;;;;;10449306;28;20295;-49
2022/04/30 15:41:40;;;;;;;5.20;2.60;;;;;;;;;;10426603;28;20044;-54
2022/04/30 15:52:00;;;;;;;3.45;2.80;;;;;;;;;;10407891;28;20104;-50
2022/04/30 15:57:04;;;;;;;3.22;2.20;;;;;;;;;;10416174;28;20033;-53
2022/04/30 16:02:05;;;;;;;4.18;2.45;;;;;;;;;;10417236;28;20038;-49
2022/04/30 16:07:08;;;;;;;5.50;2.85;;;;;;;;;;10407362;28;20046;-49
2022/04/30 16:12:11;;;;;;;4.13;2.60;;;;;;;;;;10413127;28;20104;-52
2022/04/30 16:17:11;;;;;;;4.80;2.70;;;;;;;;;;10415293;28;20033;-55
2022/04/30 16:22:12;;;;;;;4.60;2.60;;;;;;;;;;10416229;28;20420;-50
2022/04/30 16:27:13;;;;;;;4.55;2.47;;;;;;;;;;10416938;28;20025;-52
2022/04/30 16:32:13;;;;;;;3.00;2.70;;;;;;;;;;10417538;28;20536;-48
2022/04/30 16:37:14;;;;;;;5.03;2.67;;;;;;;;;;10407438;28;20026;-51
2022/04/30 16:42:16;;;;;;;4.40;2.25;;;;;;;;;;10407813;28;20029;-50
2022/04/30 16:47:16;;;;;;;3.95;2.60;;;;;;;;;;10407417;28;20091;-50
2022/04/30 16:52:20;;;;;;;3.85;2.40;;;;;;;;;;10407875;28;20021;-48
2022/04/30 16:57:20;;;;;;;5.07;2.58;;;;;;;;;;10404681;28;20560;-50
2022/04/30 17:02:21;;;;;;;6.63;2.45;;;;;;;;;;10406930;28;20040;-51
2022/04/30 17:07:22;;;;;;;4.07;2.65;;;;;;;;;;10405695;28;20041;-51
2022/04/30 17:12:23;;;;;;;3.88;2.63;;;;;;;;;;10405412;28;20035;-53
2022/04/30 17:17:23;;;;;;;2.78;2.58;;;;;;;;;;10407897;28;20397;-50
2022/04/30 17:22:24;;;;;;;2.80;2.20;;;;;;;;;;10389951;28;20037;-51
2022/04/30 17:27:25;;;;;;;3.03;2.28;;;;;;;;;;10424899;28;20029;-51
2022/04/30 17:38:01;;;;;;;3.30;2.20;;;;;;;;;;10403451;28;20389;-55
2022/04/30 17:43:03;;;;;;;2.40;2.10;;;;;;;;;;10376057;28;20034;-48
2022/04/30 17:48:05;;;;;;;2.88;2.20;;;;;;;;;;10402313;28;20500;-50
2022/04/30 17:53:08;;;;;;;5.38;2.20;;;;;;;;;;10404076;28;20240;-51
2022/04/30 17:58:09;;;;;;;2.67;2.10;;;;;;;;;;10399880;28;20034;-55
2022/04/30 18:03:10;;;;;;;3.55;2.25;;;;;;;;;;10375022;28;20113;-53
2022/04/30 18:08:12;;;;;;;4.85;2.60;;;;;;;;;;10376875;28;20046;-50
2022/04/30 18:13:13;;;;;;;2.53;2.25;;;;;;;;;;10375828;28;20096;-50
2022/04/30 18:18:14;;;;;;;4.35;2.40;;;;;;;;;;10393445;28;20086;-51
2022/04/30 18:23:14;;;;;;;4.65;2.13;;;;;;;;;;10371003;28;20053;-52
2022/04/30 18:28:15;;;;;;;13.98;3.08;;;;;;;;;;10407905;28;20030;-50
2022/04/30 18:33:16;;;;;;;13.35;3.83;;;;;;;;;;10412593;28;20046;-54
2022/04/30 18:38:16;;;;;;;24.10;3.65;;;;;;;;;;10409293;28;20120;-48
2022/04/30 18:43:17;;;;;;;8.95;3.25;;;;;;;;;;10413694;28;20029;-52
2022/04/30 18:48:18;;;;;;;7.93;3.50;;;;;;;;;;10410849;28;20156;-49
2022/04/30 18:53:21;;;;;;;11.98;3.67;;;;;;;;;;10406901;28;20022;-47
2022/04/30 19:03:44;;;;;;;4.70;3.17;;;;;;;;;;10404253;28;20389;-50
2022/04/30 19:08:45;;;;;;;8.55;3.35;;;;;;;;;;10410597;28;20095;-47
2022/04/30 19:13:45;;;;;;;9.27;3.00;;;;;;;;;;10401301;28;20092;-50
2022/04/30 19:18:47;;;;;;;12.75;3.65;;;;;;;;;;10406974;28;20032;-52
2022/04/30 19:23:48;;;;;;;10.63;2.80;;;;;;;;;;10405089;28;21505;-52
2022/04/30 19:28:50;;;;;;;9.43;3.00;;;;;;;;;;10405986;28;20049;-52
2022/04/30 19:33:50;;;;;;;10.73;3.17;;;;;;;;;;10405846;28;20116;-53
2022/04/30 19:38:51;;;;;;;9.80;2.92;;;;;;;;;;10411314;28;20393;-54
2022/04/30 19:43:53;;;;;;;9.35;2.85;;;;;;;;;;10411494;28;20740;-54
2022/04/30 19:48:54;;;;;;;9.15;3.05;;;;;;;;;;10410917;28;20119;-47
2022/04/30 19:53:55;;;;;;;23.55;4.35;;;;;;;;;;10410820;28;20588;-52
2022/04/30 19:58:55;;;;;;;18.02;3.80;;;;;;;;;;10412517;28;20115;-50
2022/04/30 20:03:58;;;;;;;30.00;4.30;;;;;;;;;;10394137;28;20045;-52
2022/04/30 20:08:58;;;;;;;9.60;3.28;;;;;;;;;;10410478;28;20086;-50
2022/04/30 20:19:21;;;;;;;14.60;3.78;;;;;;;;;;10409986;28;20428;-51
2022/04/30 20:24:22;;;;;;;10.10;2.97;;;;;;;;;;10410104;28;20108;-52
2022/04/30 20:29:24;;;;;;;10.73;2.90;;;;;;;;;;10409182;28;20033;-52
2022/04/30 20:39:47;;;;;;;7.65;2.83;;;;;;;;;;10409268;28;20025;-52
2022/04/30 20:44:47;;;;;;;6.07;2.70;;;;;;;;;;10409418;28;20026;-52
2022/04/30 20:49:48;;;;;;;10.52;2.95;;;;;;;;;;10408299;28;20030;-51
2022/04/30 20:54:49;;;;;;;10.40;3.63;;;;;;;;;;10408746;28;20029;-52
2022/04/30 20:59:51;;;;;;;8.23;3.22;;;;;;;;;;10408680;28;20033;-52
2022/04/30 21:04:51;;;;;;;4.38;2.78;;;;;;;;;;10394796;28;20121;-53
2022/04/30 21:09:52;;;;;;;9.05;3.03;;;;;;;;;;10412291;28;20029;-52
2022/04/30 21:14:53;;;;;;;6.18;2.83;;;;;;;;;;10408718;28;20588;-53
2022/04/30 21:19:54;;;;;;;7.25;2.75;;;;;;;;;;10408243;28;20037;-51
2022/04/30 21:24:55;;;;;;;6.28;2.45;;;;;;;;;;10408341;28;20393;-52
2022/04/30 21:29:56;;;;;;;4.63;2.38;;;;;;;;;;10391187;28;20099;-50
2022/04/30 21:34:57;;;;;;;4.13;2.22;;;;;;;;;;10407681;28;20033;-49
2022/04/30 21:39:57;;;;;;;7.47;2.63;;;;;;;;;;10407475;28;20432;-53
2022/04/30 21:44:59;;;;;;;5.45;2.58;;;;;;;;;;10407921;28;20034;-50
2022/04/30 21:50:00;;;;;;;7.18;2.47;;;;;;;;;;10407560;28;20025;-52
2022/04/30 22:00:25;;;;;;;5.85;2.50;;;;;;;;;;10376018;28;20041;-49
2022/04/30 22:05:26;;;;;;;13.23;3.78;;;;;;;;;;10370443;28;20056;-49
2022/04/30 22:10:26;;;;;;;15.32;3.28;;;;;;;;;;10404185;28;20033;-57
2022/04/30 22:15:28;;;;;;;15.05;3.72;;;;;;;;;;10413718;28;20037;-51
2022/04/30 22:20:28;;;;;;;21.10;4.18;;;;;;;;;;10410801;28;20099;-57
2022/04/30 22:25:29;;;;;;;14.45;4.50;;;;;;;;;;10391271;28;20124;-58
2022/04/30 22:30:30;;;;;;;8.75;3.88;;;;;;;;;;10407377;28;20484;-58
2022/04/30 22:35:30;;;;;;;11.90;4.03;;;;;;;;;;10411581;28;20038;-58
2022/04/30 22:45:50;;;;;;;8.00;4.07;;;;;;;;;;10412791;28;20408;-59
2022/04/30 22:50:51;;;;;;;13.77;4.95;;;;;;;;;;10411540;28;20034;-58
2022/04/30 22:55:52;;;;;;;11.40;5.05;;;;;;;;;;10412621;28;20581;-58
2022/04/30 23:00:52;;;;;;;8.23;5.63;;;;;;;;;;10412040;28;20033;-58
2022/04/30 23:05:53;;;;;;;8.27;5.43;;;;;;;;;;10411507;28;20041;-58
2022/04/30 23:10:54;;;;;;;11.00;5.43;;;;;;;;;;10411664;28;20041;-59
2022/04/30 23:15:58;;;;;;;8.60;5.80;;;;;;;;;;10411250;28;20424;-59
2022/04/30 23:20:59;;;;;;;5.80;4.65;;;;;;;;;;10406838;28;20029;-59
2022/04/30 23:25:59;;;;;;;8.88;4.65;;;;;;;;;;10410563;28;20033;-60
2022/04/30 23:31:01;;;;;;;5.10;3.78;;;;;;;;;;10411182;28;20087;-59
2022/04/30 23:36:01;;;;;;;7.50;3.60;;;;;;;;;;10410597;28;20041;-59
2022/04/30 23:41:02;;;;;;;6.68;3.40;;;;;;;;;;10401489;28;20504;-58
2022/04/30 23:46:05;;;;;;;3.92;3.28;;;;;;;;;;10404452;28;20468;-58
2022/04/30 23:51:06;;;;;;;3.88;3.10;;;;;;;;;;10373211;28;20896;-58
2022/04/30 23:56:07;;;;;;;4.35;3.00;;;;;;;;;;10383551;28;20045;-58
